메인 페이지
METAR-TAF:

METAR-TAF

공항 :

캠프 험프리스

평택, 대한민국

위도: 36-56N, 경도: 127-00E, 고도: 16m

현재 날씨관측

예보는 2 시간 35분 전, 14:56시(UTC)에 발표되었습니다.
동남동3kt
온도 8°C
습도 100%
기압 1018 hPa
시정: 11.3km
맑음

METAR: RKSG 171456Z 12003KT 7SM CLR 08/08 A3005 RMK AO2A SLP176 T00770077 401860062 $

시각: 02:31 (17:31 UTC)

예보

예보는 5 시간 31분 전, 12:00시(UTC)에 발표되었습니다.
예보 대상 시간: 17일 12시부터 18일 18시까지 (UTC)
서북서6kt
시정 10km 이상
맑음
전환 중
17일 16시부터 17일 18시까지 (UTC)
여러 방향의 바람 6kt
시정: 4800m
맑음
박무
일시적
17일 19시부터 17일 21시까지 (UTC)
시정: 3200m
박무
전환 중
17일 21시부터 17일 22시까지 (UTC)
여러 방향의 바람 3kt
시정: 1600m
고도 1000ft 상공 구름 보통
박무
전환 중
17일 22시부터 17일 23시까지 (UTC)
6kt
시정: 4800m
고도 3000ft 상공 구름 보통
박무
전환 중
18일 05시부터 18일 06시까지 (UTC)
북북동10kt
시정: 6000m
고도 2000ft 상공 구름 많음
약한소나기
전환 중
18일 10시부터 18일 11시까지 (UTC)
북북동6kt
시정 10km 이상
고도 2000ft 상공 구름 보통

TAF: RKSG 171200Z 1712/1818 30006KT 9999 SKC QNH2998INS BECMG 1716/1718 VRB06KT 4800 BR SKC QNH3005INS TEMPO 1719/1721 3200 BR BECMG 1721/1722 VRB03KT 1600 BR SCT010 QNH3007INS BECMG 1722/1723 35006KT 4800 BR SCT030 QNH3009INS BECMG 1805/1806 03010KT 6000 -SHRA BKN020 610603 QNH3010INS BECMG 1810/1811 03006KT 9999 NSW SCT020 QNH3012INS TX18/1805Z TN04/1721Z

4,000개 이상의 공항 관측 자료 및 예보 (METAR 및 TAF 보고).

지도상에서 검색 가능한 기상관측소가 노란 점과 빨간 점으로 표시되어 있습니다.

기상관측소 명을 보려면 표시 위로 마우스를 이동하세요.

날씨 관측과 예보를 보려면 클릭하세요.

지도 변경 : 확대하려면 엑스 표시가 있는 녹색 버튼, 축소하려면 빼기 표시가 있는 녹색 버튼, 다음 페이지의 지도를 보려면 녹색 화살표를 클릭하세요.


METAR-TAF: